Luray, Kansas
Current Conditions -  °F | °C
As of 5:53 AM on Thursday 18 Dec 2014 (Local Time) from KRSL Reporting Station
Haze Haze  
Wind Chill: 19°   Ceiling: 300
Heat Index: 25°   Visibility: 5mi
Dew Point: 25°   Wind: 5mph
Humidity: 100%   Direction: 40°NE
Pressure: 30.12"   Gusts: NA
Location:  39.11°N, 98.69°W
Report Text: KRSL 181153Z AUTO 04004KT 5SM BR OVC003 M04/M04 A3012 RMK AO2 SLP223 60002 70015 T10391039 11033 21039 55000
Loading
Personal Weather Stations






























Interactive Weather Map New forecast layout! Learn more

10-Day Weather Forecast

Advertisements
Track Severe Weather on mobile